sensor_id;sensor_type;location;lat;lon;timestamp;pressure;altitude;pressure_sealevel;temperature;humidity
20023;BME280;10172;42.054;24.546;2024-02-14T00:00:10;97862.56;;;7.86;69.33
20023;BME280;10172;42.054;24.546;2024-02-14T00:02:47;97874.41;;;8.36;67.05
20023;BME280;10172;42.054;24.546;2024-02-14T00:05:14;97874.03;;;8.24;66.69
20023;BME280;10172;42.054;24.546;2024-02-14T00:07:40;97875.16;;;8.41;66.25
20023;BME280;10172;42.054;24.546;2024-02-14T00:10:05;97872.63;;;8.50;65.33
20023;BME280;10172;42.054;24.546;2024-02-14T00:12:32;97870.00;;;8.50;65.69
20023;BME280;10172;42.054;24.546;2024-02-14T00:14:58;97887.38;;;8.56;67.18
20023;BME280;10172;42.054;24.546;2024-02-14T00:17:23;97881.44;;;8.45;65.02
20023;BME280;10172;42.054;24.546;2024-02-14T00:19:49;97882.25;;;8.22;66.39
20023;BME280;10172;42.054;24.546;2024-02-14T00:22:14;97881.03;;;8.14;65.78
20023;BME280;10172;42.054;24.546;2024-02-14T00:24:41;97892.84;;;8.22;67.51
20023;BME280;10172;42.054;24.546;2024-02-14T00:27:06;97894.75;;;7.69;69.65
20023;BME280;10172;42.054;24.546;2024-02-14T00:29:32;97893.41;;;7.72;69.06
20023;BME280;10172;42.054;24.546;2024-02-14T00:31:59;97883.75;;;7.86;68.54
20023;BME280;10172;42.054;24.546;2024-02-14T00:34:25;97895.66;;;8.07;67.16
20023;BME280;10172;42.054;24.546;2024-02-14T00:36:50;97889.19;;;7.94;68.77
20023;BME280;10172;42.054;24.546;2024-02-14T00:39:16;97907.44;;;7.72;69.00
20023;BME280;10172;42.054;24.546;2024-02-14T00:41:41;97897.47;;;7.88;67.37
20023;BME280;10172;42.054;24.546;2024-02-14T00:44:06;97894.47;;;7.94;68.03
20023;BME280;10172;42.054;24.546;2024-02-14T00:46:32;97893.63;;;7.99;68.25
20023;BME280;10172;42.054;24.546;2024-02-14T00:48:57;97895.75;;;8.44;66.73
20023;BME280;10172;42.054;24.546;2024-02-14T00:51:23;97895.53;;;8.17;66.96
20023;BME280;10172;42.054;24.546;2024-02-14T00:53:48;97895.66;;;8.07;67.56
20023;BME280;10172;42.054;24.546;2024-02-14T00:56:14;97894.31;;;8.09;67.32
20023;BME280;10172;42.054;24.546;2024-02-14T00:58:39;97893.63;;;7.99;67.15
20023;BME280;10172;42.054;24.546;2024-02-14T01:01:04;97896.25;;;8.23;67.16
20023;BME280;10172;42.054;24.546;2024-02-14T01:03:30;97894.91;;;8.01;69.65
20023;BME280;10172;42.054;24.546;2024-02-14T01:05:56;97885.38;;;7.82;68.60
20023;BME280;10172;42.054;24.546;2024-02-14T01:08:21;97895.25;;;7.71;68.61
20023;BME280;10172;42.054;24.546;2024-02-14T01:10:46;97899.03;;;7.65;68.31
20023;BME280;10172;42.054;24.546;2024-02-14T01:13:12;97897.25;;;7.84;67.52
20023;BME280;10172;42.054;24.546;2024-02-14T01:15:38;97902.81;;;7.83;67.80
20023;BME280;10172;42.054;24.546;2024-02-14T01:18:03;97897.09;;;8.18;66.63
20023;BME280;10172;42.054;24.546;2024-02-14T01:20:29;97897.34;;;7.74;67.82
20023;BME280;10172;42.054;24.546;2024-02-14T01:22:54;97902.19;;;8.14;66.63
20023;BME280;10172;42.054;24.546;2024-02-14T01:25:20;97898.41;;;8.20;66.59
20023;BME280;10172;42.054;24.546;2024-02-14T01:27:45;97889.00;;;8.33;65.80
20023;BME280;10172;42.054;24.546;2024-02-14T01:30:11;97892.81;;;8.27;65.61
20023;BME280;10172;42.054;24.546;2024-02-14T01:32:37;97895.16;;;8.29;65.87
20023;BME280;10172;42.054;24.546;2024-02-14T01:35:02;97892.34;;;7.96;65.88
20023;BME280;10172;42.054;24.546;2024-02-14T01:37:29;97899.00;;;8.17;66.38
20023;BME280;10172;42.054;24.546;2024-02-14T01:39:54;97889.56;;;8.30;65.36
20023;BME280;10172;42.054;24.546;2024-02-14T01:42:20;97889.91;;;8.24;64.53
20023;BME280;10172;42.054;24.546;2024-02-14T01:44:45;97889.97;;;8.18;64.56
20023;BME280;10172;42.054;24.546;2024-02-14T01:47:11;97890.16;;;8.27;62.81
20023;BME280;10172;42.054;24.546;2024-02-14T01:49:38;97906.31;;;8.02;63.08
20023;BME280;10172;42.054;24.546;2024-02-14T01:52:04;97901.63;;;8.41;62.03
20023;BME280;10172;42.054;24.546;2024-02-14T01:54:31;97896.59;;;8.16;63.47
20023;BME280;10172;42.054;24.546;2024-02-14T01:56:57;97899.91;;;8.50;63.07
20023;BME280;10172;42.054;24.546;2024-02-14T01:59:24;97902.63;;;8.45;63.77
20023;BME280;10172;42.054;24.546;2024-02-14T02:01:50;97903.78;;;8.58;64.42
20023;BME280;10172;42.054;24.546;2024-02-14T02:04:17;97902.19;;;8.75;63.13
20023;BME280;10172;42.054;24.546;2024-02-14T02:06:43;97903.59;;;8.31;63.43
20023;BME280;10172;42.054;24.546;2024-02-14T02:09:09;97905.69;;;8.34;63.26
20023;BME280;10172;42.054;24.546;2024-02-14T02:11:48;97908.84;;;8.12;66.19
20023;BME280;10172;42.054;24.546;2024-02-14T02:14:14;97912.09;;;8.04;66.27
20023;BME280;10172;42.054;24.546;2024-02-14T02:16:40;97912.53;;;8.11;66.53
20023;BME280;10172;42.054;24.546;2024-02-14T02:19:05;97912.53;;;8.11;66.49
20023;BME280;10172;42.054;24.546;2024-02-14T02:21:34;97916.13;;;7.73;66.91
20023;BME280;10172;42.054;24.546;2024-02-14T02:24:00;97914.47;;;7.82;64.81
20023;BME280;10172;42.054;24.546;2024-02-14T02:26:26;97921.66;;;7.76;66.51
20023;BME280;10172;42.054;24.546;2024-02-14T02:28:51;97927.03;;;7.95;66.00
20023;BME280;10172;42.054;24.546;2024-02-14T02:31:17;97919.78;;;8.29;64.12
20023;BME280;10172;42.054;24.546;2024-02-14T02:33:43;97927.31;;;8.17;65.51
20023;BME280;10172;42.054;24.546;2024-02-14T02:36:08;97921.66;;;8.47;65.11
20023;BME280;10172;42.054;24.546;2024-02-14T02:38:35;97928.00;;;8.70;64.40
20023;BME280;10172;42.054;24.546;2024-02-14T02:41:02;97933.84;;;8.25;65.03
20023;BME280;10172;42.054;24.546;2024-02-14T02:43:29;97933.22;;;8.09;63.61
20023;BME280;10172;42.054;24.546;2024-02-14T02:45:55;97928.78;;;8.28;62.60
20023;BME280;10172;42.054;24.546;2024-02-14T02:48:22;97932.72;;;8.31;63.87
20023;BME280;10172;42.054;24.546;2024-02-14T02:50:51;97945.03;;;8.16;62.77
20023;BME280;10172;42.054;24.546;2024-02-14T02:53:17;97934.41;;;8.45;62.91
20023;BME280;10172;42.054;24.546;2024-02-14T02:55:43;97940.34;;;8.56;63.09
20023;BME280;10172;42.054;24.546;2024-02-14T02:58:08;97942.19;;;8.37;63.06
20023;BME280;10172;42.054;24.546;2024-02-14T03:00:33;97943.22;;;8.59;62.88
20023;BME280;10172;42.054;24.546;2024-02-14T03:02:59;97944.66;;;8.28;63.91
20023;BME280;10172;42.054;24.546;2024-02-14T03:05:25;97944.69;;;8.47;62.22
20023;BME280;10172;42.054;24.546;2024-02-14T03:07:51;97942.97;;;8.56;61.75
20023;BME280;10172;42.054;24.546;2024-02-14T03:10:18;97952.91;;;8.22;63.03
20023;BME280;10172;42.054;24.546;2024-02-14T03:12:47;97949.91;;;8.33;63.02
20023;BME280;10172;42.054;24.546;2024-02-14T03:15:13;97969.94;;;7.87;64.19
20023;BME280;10172;42.054;24.546;2024-02-14T03:17:39;97961.81;;;8.07;64.36
20023;BME280;10172;42.054;24.546;2024-02-14T03:20:05;97967.94;;;8.31;62.81
20023;BME280;10172;42.054;24.546;2024-02-14T03:22:42;97975.81;;;8.36;63.88
20023;BME280;10172;42.054;24.546;2024-02-14T03:25:13;97975.34;;;8.05;64.13
20023;BME280;10172;42.054;24.546;2024-02-14T03:27:41;97980.38;;;8.31;64.80
20023;BME280;10172;42.054;24.546;2024-02-14T03:30:07;97982.44;;;8.57;63.49
20023;BME280;10172;42.054;24.546;2024-02-14T03:32:32;97984.00;;;8.58;62.45
20023;BME280;10172;42.054;24.546;2024-02-14T03:34:58;97984.16;;;7.96;63.65
20023;BME280;10172;42.054;24.546;2024-02-14T03:37:26;97993.00;;;8.39;62.78
20023;BME280;10172;42.054;24.546;2024-02-14T03:39:52;97992.13;;;8.85;60.90
20023;BME280;10172;42.054;24.546;2024-02-14T03:42:17;97990.75;;;8.69;60.13
20023;BME280;10172;42.054;24.546;2024-02-14T03:44:45;98004.13;;;8.36;60.03
20023;BME280;10172;42.054;24.546;2024-02-14T03:47:11;98002.44;;;8.45;60.98
20023;BME280;10172;42.054;24.546;2024-02-14T03:49:37;98001.13;;;8.18;61.89
20023;BME280;10172;42.054;24.546;2024-02-14T03:52:04;98007.63;;;8.31;62.37
20023;BME280;10172;42.054;24.546;2024-02-14T03:54:34;98010.19;;;8.41;61.67
20023;BME280;10172;42.054;24.546;2024-02-14T03:57:00;98007.38;;;8.51;60.61
20023;BME280;10172;42.054;24.546;2024-02-14T03:59:25;98000.91;;;8.62;60.18
20023;BME280;10172;42.054;24.546;2024-02-14T04:01:50;98009.94;;;8.38;60.55
20023;BME280;10172;42.054;24.546;2024-02-14T04:04:18;98008.94;;;8.34;62.24
20023;BME280;10172;42.054;24.546;2024-02-14T04:06:43;98019.00;;;8.55;61.06
20023;BME280;10172;42.054;24.546;2024-02-14T04:09:10;98019.78;;;8.56;62.57
20023;BME280;10172;42.054;24.546;2024-02-14T04:11:35;98012.50;;;8.66;60.39
20023;BME280;10172;42.054;24.546;2024-02-14T04:14:01;98029.34;;;8.75;61.98
20023;BME280;10172;42.054;24.546;2024-02-14T04:16:26;98023.81;;;8.25;61.80
20023;BME280;10172;42.054;24.546;2024-02-14T04:18:52;98038.84;;;8.34;62.16
20023;BME280;10172;42.054;24.546;2024-02-14T04:21:18;98034.72;;;8.47;60.64
20023;BME280;10172;42.054;24.546;2024-02-14T04:23:43;98038.91;;;8.29;62.22
20023;BME280;10172;42.054;24.546;2024-02-14T04:26:09;98038.69;;;8.20;60.89
20023;BME280;10172;42.054;24.546;2024-02-14T04:28:34;98040.84;;;8.66;61.79
20023;BME280;10172;42.054;24.546;2024-02-14T04:31:00;98040.34;;;8.11;62.66
20023;BME280;10172;42.054;24.546;2024-02-14T04:33:25;98045.66;;;8.11;62.26
20023;BME280;10172;42.054;24.546;2024-02-14T04:35:51;98052.13;;;8.29;61.95
20023;BME280;10172;42.054;24.546;2024-02-14T04:38:16;98046.06;;;8.52;62.37
20023;BME280;10172;42.054;24.546;2024-02-14T04:40:43;98060.56;;;8.02;64.07
20023;BME280;10172;42.054;24.546;2024-02-14T04:43:09;98049.94;;;8.07;63.29
20023;BME280;10172;42.054;24.546;2024-02-14T04:45:35;98056.41;;;7.63;67.70
20023;BME280;10172;42.054;24.546;2024-02-14T04:48:00;98061.22;;;7.56;68.18
20023;BME280;10172;42.054;24.546;2024-02-14T04:50:26;98057.31;;;7.82;66.58
20023;BME280;10172;42.054;24.546;2024-02-14T04:52:52;98064.16;;;7.49;68.27
20023;BME280;10172;42.054;24.546;2024-02-14T04:55:17;98072.81;;;7.93;66.42
20023;BME280;10172;42.054;24.546;2024-02-14T04:57:44;98080.66;;;7.75;64.75
20023;BME280;10172;42.054;24.546;2024-02-14T05:00:10;98070.78;;;7.80;65.91
20023;BME280;10172;42.054;24.546;2024-02-14T05:02:35;98067.38;;;8.08;64.40
20023;BME280;10172;42.054;24.546;2024-02-14T05:05:02;98068.69;;;8.40;62.94
20023;BME280;10172;42.054;24.546;2024-02-14T05:07:28;98082.06;;;8.25;61.73
20023;BME280;10172;42.054;24.546;2024-02-14T05:09:53;98078.22;;;7.78;67.92
20023;BME280;10172;42.054;24.546;2024-02-14T05:12:21;98084.03;;;7.41;67.27
20023;BME280;10172;42.054;24.546;2024-02-14T05:14:47;98084.72;;;8.25;66.84
20023;BME280;10172;42.054;24.546;2024-02-14T05:17:13;98081.59;;;7.89;67.32
20023;BME280;10172;42.054;24.546;2024-02-14T05:19:41;98093.88;;;7.31;69.57
20023;BME280;10172;42.054;24.546;2024-02-14T05:22:07;98091.00;;;7.66;64.37
20023;BME280;10172;42.054;24.546;2024-02-14T05:24:32;98091.56;;;7.97;62.77
20023;BME280;10172;42.054;24.546;2024-02-14T05:26:58;98096.22;;;7.76;65.88
20023;BME280;10172;42.054;24.546;2024-02-14T05:29:23;98094.09;;;8.12;66.75
20023;BME280;10172;42.054;24.546;2024-02-14T05:31:49;98094.38;;;7.38;69.38
20023;BME280;10172;42.054;24.546;2024-02-14T05:34:14;98103.31;;;7.42;66.58
20023;BME280;10172;42.054;24.546;2024-02-14T05:36:40;98108.53;;;7.57;66.94
20023;BME280;10172;42.054;24.546;2024-02-14T05:39:07;98111.69;;;7.54;66.54
20023;BME280;10172;42.054;24.546;2024-02-14T05:41:33;98106.56;;;8.06;63.62
20023;BME280;10172;42.054;24.546;2024-02-14T05:43:59;98110.59;;;8.33;63.61
20023;BME280;10172;42.054;24.546;2024-02-14T05:46:25;98111.19;;;8.25;62.04
20023;BME280;10172;42.054;24.546;2024-02-14T05:48:50;98121.09;;;8.43;61.23
20023;BME280;10172;42.054;24.546;2024-02-14T05:51:17;98119.31;;;7.99;62.58
20023;BME280;10172;42.054;24.546;2024-02-14T05:53:42;98124.09;;;7.97;61.89
20023;BME280;10172;42.054;24.546;2024-02-14T05:56:08;98119.66;;;7.88;63.79
20023;BME280;10172;42.054;24.546;2024-02-14T05:58:33;98125.50;;;8.18;63.38
20023;BME280;10172;42.054;24.546;2024-02-14T06:00:59;98131.75;;;8.33;62.14
20023;BME280;10172;42.054;24.546;2024-02-14T06:03:24;98134.38;;;8.38;61.65
20023;BME280;10172;42.054;24.546;2024-02-14T06:05:49;98142.72;;;8.50;61.34
20023;BME280;10172;42.054;24.546;2024-02-14T06:08:15;98149.75;;;8.36;60.53
20023;BME280;10172;42.054;24.546;2024-02-14T06:10:40;98141.25;;;8.39;60.33
20023;BME280;10172;42.054;24.546;2024-02-14T06:13:06;98144.22;;;8.84;58.76
20023;BME280;10172;42.054;24.546;2024-02-14T06:15:31;98152.47;;;8.83;57.12
20023;BME280;10172;42.054;24.546;2024-02-14T06:17:56;98156.16;;;8.82;56.00
20023;BME280;10172;42.054;24.546;2024-02-14T06:20:22;98154.38;;;8.49;58.04
20023;BME280;10172;42.054;24.546;2024-02-14T06:22:48;98159.31;;;8.60;57.85
20023;BME280;10172;42.054;24.546;2024-02-14T06:25:13;98163.22;;;8.92;56.89
20023;BME280;10172;42.054;24.546;2024-02-14T06:27:39;98159.53;;;9.35;58.66
20023;BME280;10172;42.054;24.546;2024-02-14T06:30:05;98160.69;;;9.05;57.90
20023;BME280;10172;42.054;24.546;2024-02-14T06:32:30;98167.91;;;9.23;58.34
20023;BME280;10172;42.054;24.546;2024-02-14T06:34:56;98169.31;;;9.16;58.06
20023;BME280;10172;42.054;24.546;2024-02-14T06:37:21;98172.00;;;8.87;58.40
20023;BME280;10172;42.054;24.546;2024-02-14T06:39:46;98171.56;;;8.51;59.32
20023;BME280;10172;42.054;24.546;2024-02-14T06:42:14;98180.81;;;8.54;56.59
20023;BME280;10172;42.054;24.546;2024-02-14T06:44:39;98183.59;;;8.96;58.08
20023;BME280;10172;42.054;24.546;2024-02-14T06:47:04;98180.41;;;9.18;56.92
20023;BME280;10172;42.054;24.546;2024-02-14T06:49:30;98179.88;;;9.39;56.46
20023;BME280;10172;42.054;24.546;2024-02-14T06:51:55;98183.41;;;9.35;56.27
20023;BME280;10172;42.054;24.546;2024-02-14T06:54:21;98196.25;;;8.99;55.65
20023;BME280;10172;42.054;24.546;2024-02-14T06:56:46;98193.47;;;8.62;57.46
20023;BME280;10172;42.054;24.546;2024-02-14T06:59:11;98202.16;;;8.96;56.36
20023;BME280;10172;42.054;24.546;2024-02-14T07:01:37;98205.13;;;9.13;55.94
20023;BME280;10172;42.054;24.546;2024-02-14T07:04:03;98200.09;;;8.88;56.46
20023;BME280;10172;42.054;24.546;2024-02-14T07:06:30;98199.59;;;9.33;56.24
20023;BME280;10172;42.054;24.546;2024-02-14T07:08:55;98203.66;;;9.26;56.07
20023;BME280;10172;42.054;24.546;2024-02-14T07:11:20;98209.56;;;9.18;55.67
20023;BME280;10172;42.054;24.546;2024-02-14T07:13:46;98210.25;;;9.28;54.35
20023;BME280;10172;42.054;24.546;2024-02-14T07:16:11;98206.66;;;9.62;53.87
20023;BME280;10172;42.054;24.546;2024-02-14T07:18:37;98214.41;;;9.34;55.87
20023;BME280;10172;42.054;24.546;2024-02-14T07:21:02;98216.31;;;9.34;55.84
20023;BME280;10172;42.054;24.546;2024-02-14T07:23:31;98217.66;;;9.31;54.92
20023;BME280;10172;42.054;24.546;2024-02-14T07:25:57;98223.06;;;8.98;56.66
20023;BME280;10172;42.054;24.546;2024-02-14T07:28:23;98225.91;;;9.01;55.16
20023;BME280;10172;42.054;24.546;2024-02-14T07:30:48;98230.72;;;9.23;55.25
20023;BME280;10172;42.054;24.546;2024-02-14T07:33:15;98221.38;;;9.30;54.80
20023;BME280;10172;42.054;24.546;2024-02-14T07:35:40;98235.91;;;9.09;54.65
20023;BME280;10172;42.054;24.546;2024-02-14T07:38:06;98234.47;;;9.45;53.55
20023;BME280;10172;42.054;24.546;2024-02-14T07:40:32;98229.69;;;9.66;54.13
20023;BME280;10172;42.054;24.546;2024-02-14T07:42:58;98245.72;;;9.32;53.89
20023;BME280;10172;42.054;24.546;2024-02-14T07:45:23;98253.44;;;9.34;52.77
20023;BME280;10172;42.054;24.546;2024-02-14T07:47:49;98262.59;;;9.18;54.08
20023;BME280;10172;42.054;24.546;2024-02-14T07:50:15;98253.34;;;9.39;53.96
20023;BME280;10172;42.054;24.546;2024-02-14T07:52:42;98263.13;;;9.43;52.97
20023;BME280;10172;42.054;24.546;2024-02-14T07:55:08;98258.50;;;9.73;53.38
20023;BME280;10172;42.054;24.546;2024-02-14T07:57:37;98260.97;;;9.45;53.88
20023;BME280;10172;42.054;24.546;2024-02-14T08:00:03;98267.56;;;9.72;53.74
20023;BME280;10172;42.054;24.546;2024-02-14T08:02:29;98258.44;;;9.78;51.81
20023;BME280;10172;42.054;24.546;2024-02-14T08:04:55;98272.09;;;8.95;55.33
20023;BME280;10172;42.054;24.546;2024-02-14T08:07:20;98264.13;;;9.47;52.57
20023;BME280;10172;42.054;24.546;2024-02-14T08:09:45;98271.69;;;9.59;52.50
20023;BME280;10172;42.054;24.546;2024-02-14T08:12:11;98265.69;;;9.01;54.84
20023;BME280;10172;42.054;24.546;2024-02-14T08:14:36;98269.16;;;9.25;53.77
20023;BME280;10172;42.054;24.546;2024-02-14T08:17:02;98279.25;;;9.23;53.85
20023;BME280;10172;42.054;24.546;2024-02-14T08:19:27;98284.84;;;9.45;53.73
20023;BME280;10172;42.054;24.546;2024-02-14T08:21:52;98277.31;;;9.05;55.60
20023;BME280;10172;42.054;24.546;2024-02-14T08:24:26;98280.16;;;9.61;53.49
20023;BME280;10172;42.054;24.546;2024-02-14T08:26:51;98285.25;;;9.58;54.17
20023;BME280;10172;42.054;24.546;2024-02-14T08:29:17;98290.91;;;9.22;52.75
20023;BME280;10172;42.054;24.546;2024-02-14T08:31:43;98283.88;;;9.13;54.79
20023;BME280;10172;42.054;24.546;2024-02-14T08:34:08;98281.28;;;9.08;53.29
20023;BME280;10172;42.054;24.546;2024-02-14T08:36:35;98296.19;;;9.51;53.75
20023;BME280;10172;42.054;24.546;2024-02-14T08:39:06;98301.31;;;9.19;53.92
20023;BME280;10172;42.054;24.546;2024-02-14T08:41:31;98303.19;;;9.66;53.02
20023;BME280;10172;42.054;24.546;2024-02-14T08:43:57;98302.25;;;9.28;52.66
20023;BME280;10172;42.054;24.546;2024-02-14T08:46:22;98300.84;;;9.12;52.03
20023;BME280;10172;42.054;24.546;2024-02-14T08:48:48;98310.53;;;9.50;52.45
20023;BME280;10172;42.054;24.546;2024-02-14T08:51:14;98317.03;;;9.10;54.38
20023;BME280;10172;42.054;24.546;2024-02-14T08:53:40;98315.81;;;8.98;54.97
20023;BME280;10172;42.054;24.546;2024-02-14T08:56:09;98315.34;;;8.91;55.11
20023;BME280;10172;42.054;24.546;2024-02-14T08:58:39;98325.06;;;9.29;54.00
20023;BME280;10172;42.054;24.546;2024-02-14T09:01:05;98320.34;;;9.49;54.45
20023;BME280;10172;42.054;24.546;2024-02-14T09:03:51;98321.88;;;9.03;55.54
20023;BME280;10172;42.054;24.546;2024-02-14T09:06:17;98319.97;;;9.32;53.78
20023;BME280;10172;42.054;24.546;2024-02-14T09:08:46;98329.03;;;9.31;54.03
20023;BME280;10172;42.054;24.546;2024-02-14T09:11:11;98325.66;;;8.92;54.31
20023;BME280;10172;42.054;24.546;2024-02-14T09:13:38;98319.94;;;9.09;54.11
20023;BME280;10172;42.054;24.546;2024-02-14T09:16:04;98325.50;;;9.12;54.55
20023;BME280;10172;42.054;24.546;2024-02-14T09:18:31;98331.50;;;8.89;55.10
20023;BME280;10172;42.054;24.546;2024-02-14T09:20:57;98324.63;;;8.88;53.77
20023;BME280;10172;42.054;24.546;2024-02-14T09:23:22;98333.03;;;9.00;54.71
20023;BME280;10172;42.054;24.546;2024-02-14T09:25:48;98337.59;;;8.90;55.65
20023;BME280;10172;42.054;24.546;2024-02-14T09:28:15;98327.91;;;8.75;56.13
20023;BME280;10172;42.054;24.546;2024-02-14T09:30:41;98334.50;;;9.11;54.26
20023;BME280;10172;42.054;24.546;2024-02-14T09:33:06;98332.81;;;9.20;54.74
20023;BME280;10172;42.054;24.546;2024-02-14T09:35:31;98332.69;;;9.07;54.89
20023;BME280;10172;42.054;24.546;2024-02-14T09:37:57;98340.25;;;8.90;55.81
20023;BME280;10172;42.054;24.546;2024-02-14T09:40:22;98334.16;;;9.18;55.95
20023;BME280;10172;42.054;24.546;2024-02-14T09:42:55;98337.47;;;9.05;55.58
20023;BME280;10172;42.054;24.546;2024-02-14T09:45:25;98338.00;;;9.07;54.59
20023;BME280;10172;42.054;24.546;2024-02-14T09:47:52;98341.09;;;8.85;54.86
20023;BME280;10172;42.054;24.546;2024-02-14T09:50:19;98329.84;;;8.98;54.96
20023;BME280;10172;42.054;24.546;2024-02-14T09:52:47;98336.69;;;9.04;55.71
20023;BME280;10172;42.054;24.546;2024-02-14T09:55:14;98331.16;;;9.01;55.72
20023;BME280;10172;42.054;24.546;2024-02-14T09:57:41;98331.00;;;9.16;54.71
20023;BME280;10172;42.054;24.546;2024-02-14T10:00:10;98330.03;;;8.73;57.20
20023;BME280;10172;42.054;24.546;2024-02-14T10:02:35;98327.97;;;9.27;55.48
20023;BME280;10172;42.054;24.546;2024-02-14T10:05:01;98337.47;;;9.05;56.63
20023;BME280;10172;42.054;24.546;2024-02-14T10:07:26;98332.00;;;8.96;55.80
20023;BME280;10172;42.054;24.546;2024-02-14T10:09:53;98343.19;;;8.88;57.88
20023;BME280;10172;42.054;24.546;2024-02-14T10:12:19;98337.63;;;9.18;56.07
20023;BME280;10172;42.054;24.546;2024-02-14T10:14:44;98336.69;;;9.33;56.15
20023;BME280;10172;42.054;24.546;2024-02-14T10:17:18;98339.47;;;9.18;55.47
20023;BME280;10172;42.054;24.546;2024-02-14T10:19:43;98341.09;;;9.14;56.83
20023;BME280;10172;42.054;24.546;2024-02-14T10:22:09;98329.75;;;9.08;53.89
20023;BME280;10172;42.054;24.546;2024-02-14T10:24:34;98336.34;;;9.11;53.79
20023;BME280;10172;42.054;24.546;2024-02-14T10:27:00;98337.06;;;9.21;54.07
20023;BME280;10172;42.054;24.546;2024-02-14T10:29:26;98333.94;;;9.14;54.95
20023;BME280;10172;42.054;24.546;2024-02-14T10:31:52;98336.31;;;9.44;53.35
20023;BME280;10172;42.054;24.546;2024-02-14T10:34:18;98330.16;;;9.20;55.79
20023;BME280;10172;42.054;24.546;2024-02-14T10:36:45;98327.25;;;9.50;54.94
20023;BME280;10172;42.054;24.546;2024-02-14T10:39:11;98329.03;;;8.69;55.55
20023;BME280;10172;42.054;24.546;2024-02-14T10:41:37;98333.09;;;8.90;55.85
20023;BME280;10172;42.054;24.546;2024-02-14T10:44:03;98323.16;;;8.77;58.22
20023;BME280;10172;42.054;24.546;2024-02-14T10:46:34;98331.03;;;8.48;57.67
20023;BME280;10172;42.054;24.546;2024-02-14T10:49:05;98326.78;;;8.47;58.65
20023;BME280;10172;42.054;24.546;2024-02-14T10:51:31;98334.50;;;8.44;57.63
20023;BME280;10172;42.054;24.546;2024-02-14T10:53:58;98332.50;;;8.64;58.73
20023;BME280;10172;42.054;24.546;2024-02-14T10:56:28;98332.06;;;8.52;59.70
20023;BME280;10172;42.054;24.546;2024-02-14T10:58:56;98324.34;;;8.56;59.94
20023;BME280;10172;42.054;24.546;2024-02-14T11:01:24;98332.91;;;8.81;59.19
20023;BME280;10172;42.054;24.546;2024-02-14T11:03:50;98342.50;;;8.72;59.94
20023;BME280;10172;42.054;24.546;2024-02-14T11:06:16;98334.94;;;8.90;60.76
20023;BME280;10172;42.054;24.546;2024-02-14T11:09:00;98326.50;;;8.49;60.90
20023;BME280;10172;42.054;24.546;2024-02-14T11:11:28;98330.41;;;8.17;60.96
20023;BME280;10172;42.054;24.546;2024-02-14T11:13:56;98331.25;;;8.52;62.38
20023;BME280;10172;42.054;24.546;2024-02-14T11:16:25;98331.56;;;8.84;60.49
20023;BME280;10172;42.054;24.546;2024-02-14T11:18:53;98323.88;;;8.82;60.26
20023;BME280;10172;42.054;24.546;2024-02-14T11:21:20;98325.31;;;8.21;63.80
20023;BME280;10172;42.054;24.546;2024-02-14T11:23:54;98326.09;;;8.32;63.45
20023;BME280;10172;42.054;24.546;2024-02-14T11:26:20;98331.72;;;8.15;64.65
20023;BME280;10172;42.054;24.546;2024-02-14T11:28:48;98329.22;;;8.77;63.69
20023;BME280;10172;42.054;24.546;2024-02-14T11:31:16;98332.38;;;8.46;64.25
20023;BME280;10172;42.054;24.546;2024-02-14T11:33:43;98333.50;;;7.66;66.33
20023;BME280;10172;42.054;24.546;2024-02-14T11:36:12;98333.41;;;7.96;66.04
20023;BME280;10172;42.054;24.546;2024-02-14T11:38:40;98327.81;;;8.02;66.79
20023;BME280;10172;42.054;24.546;2024-02-14T11:41:06;98325.59;;;8.25;65.64
20023;BME280;10172;42.054;24.546;2024-02-14T11:43:32;98330.69;;;8.06;66.16
20023;BME280;10172;42.054;24.546;2024-02-14T11:45:57;98324.94;;;8.48;63.92
20023;BME280;10172;42.054;24.546;2024-02-14T11:48:23;98334.66;;;8.03;66.07
20023;BME280;10172;42.054;24.546;2024-02-14T11:50:51;98334.97;;;7.97;66.94
20023;BME280;10172;42.054;24.546;2024-02-14T11:53:17;98333.69;;;8.48;65.21
20023;BME280;10172;42.054;24.546;2024-02-14T11:55:44;98321.44;;;8.57;63.82
20023;BME280;10172;42.054;24.546;2024-02-14T11:58:13;98332.91;;;8.43;65.01
20023;BME280;10172;42.054;24.546;2024-02-14T12:03:07;98334.81;;;7.73;65.13
20023;BME280;10172;42.054;24.546;2024-02-14T12:05:33;98336.34;;;8.43;65.95
20023;BME280;10172;42.054;24.546;2024-02-14T12:08:00;98333.66;;;7.94;64.21
20023;BME280;10172;42.054;24.546;2024-02-14T12:10:26;98328.31;;;8.09;64.46
20023;BME280;10172;42.054;24.546;2024-02-14T12:12:51;98332.59;;;8.00;63.91
20023;BME280;10172;42.054;24.546;2024-02-14T12:15:17;98332.78;;;8.14;62.58
20023;BME280;10172;42.054;24.546;2024-02-14T12:17:42;98331.78;;;8.00;65.08
20023;BME280;10172;42.054;24.546;2024-02-14T12:20:10;98327.28;;;8.54;63.85
20023;BME280;10172;42.054;24.546;2024-02-14T12:22:37;98326.50;;;8.49;63.78
20023;BME280;10172;42.054;24.546;2024-02-14T12:25:02;98330.91;;;8.19;63.69
20023;BME280;10172;42.054;24.546;2024-02-14T12:27:32;98329.25;;;8.72;60.60
20023;BME280;10172;42.054;24.546;2024-02-14T12:29:58;98327.63;;;8.43;62.22
20023;BME280;10172;42.054;24.546;2024-02-14T12:32:23;98330.63;;;8.26;63.90
20023;BME280;10172;42.054;24.546;2024-02-14T12:34:48;98326.56;;;8.77;63.06
20023;BME280;10172;42.054;24.546;2024-02-14T12:37:14;98317.22;;;9.19;61.10
20023;BME280;10172;42.054;24.546;2024-02-14T12:39:40;98321.06;;;8.69;60.96
20023;BME280;10172;42.054;24.546;2024-02-14T12:42:05;98324.78;;;9.02;61.50
20023;BME280;10172;42.054;24.546;2024-02-14T12:44:31;98320.28;;;8.25;60.50
20023;BME280;10172;42.054;24.546;2024-02-14T12:46:57;98320.59;;;8.62;61.06
20023;BME280;10172;42.054;24.546;2024-02-14T12:49:23;98327.72;;;9.29;59.62
20023;BME280;10172;42.054;24.546;2024-02-14T12:51:51;98328.94;;;8.40;60.52
20023;BME280;10172;42.054;24.546;2024-02-14T12:54:16;98324.22;;;8.32;59.93
20023;BME280;10172;42.054;24.546;2024-02-14T12:56:42;98332.00;;;8.96;58.58